Flight Information

DEPARTURE
CASPER, WY
Elevation:
5344
Runways:
3/21 - 10165x150 - ASPH-G
8/26 - 8679x150 - ASPH-F
ATIS:
126.15
Clearance Delivery:
121.9
Ground:
121.9
Tower:
CASPER TOWER 118.3
DESTINATION
,
Elevation:
TPA:
1000 (est.)


6118.6 NM79° True-13° Var65° HDG

Flight Plan:
(click to file on line)

1. Type
2. Aircraft Identification
3. Aircraft Type / Special Equipment
4. True Airspeed
kts
5. Departure Airport
(ICAO code)
6. Arriving Airport
(ICAO code)
7. Cruising Altitude
ft
8. Alternate Airport
(ICAO code)
9. Route of Flight
10. Remarks


00:00:00 Departure ATIS: Destination ATIS:

Clearance Limit:
Route:
Altitude: Expect in minutes
Frequency:
Transponder: (7500 Hijack / 7600 Lost Comms / 7700 Emergency)


KCPR 101353Z 24008KT 10SM CLR 18/03 A3011 RMK AO2 SLP121 T01830028
Time: 2020-07-10T13:53:00Z
1594392443
Winds: 240 @ 8 kts
Visibility: 10.0 sm
Clouds (AGL): CLR
Temperature: 18.3 C
Dew Point: 2.8 C
Pressure: 30.109253 in Hgbr


Notes:

Data extracted from FAA Digital Chart Supplement. Effective: 0901Z Thursday, May 21, 2020 to 0901Z Thursday, Jul 16, 2020
Current ATIS data is provided courtisy of PilotEdge.